Time;durP1;ratioP1;P1;durP2;ratioP2;P2;SDS_P1;SDS_P2;PMS_P1;PMS_P2;Temp;Humidity;BMP_temperature;BMP_pressure;BME280_temperature;BME280_humidity;BME280_pressure;Samples;Min_cycle;Max_cycle;Signal;HPM_P1;HPM_P2
2021/12/30 00:01:05;;;;;;;15.60;8.77;;;;;;;3.49;100.00;100119.50;5005936;28;20222;-73
2021/12/30 00:03:32;;;;;;;13.33;8.10;;;;;;;3.49;100.00;100112.59;5003681;28;20200;-73
2021/12/30 00:05:58;;;;;;;16.57;8.80;;;;;;;3.48;100.00;100115.19;5005627;28;20205;-73
2021/12/30 00:08:25;;;;;;;19.30;9.53;;;;;;;3.49;100.00;100109.19;5005053;28;20195;-73
2021/12/30 00:10:53;;;;;;;14.50;8.67;;;;;;;3.46;100.00;100099.72;5004292;28;20701;-73
2021/12/30 00:13:20;;;;;;;14.97;8.73;;;;;;;3.51;100.00;100103.13;5002783;28;20229;-73
2021/12/30 00:15:46;;;;;;;16.93;9.53;;;;;;;3.47;100.00;100098.88;4999538;28;20212;-73
2021/12/30 00:18:13;;;;;;;16.87;9.47;;;;;;;3.48;100.00;100105.72;5002362;28;20196;-73
2021/12/30 00:20:40;;;;;;;19.27;9.20;;;;;;;3.48;100.00;100100.56;5005064;28;20244;-73
2021/12/30 00:23:08;;;;;;;15.40;8.90;;;;;;;3.50;100.00;100101.44;5001021;28;20781;-72
2021/12/30 00:25:40;;;;;;;15.20;8.50;;;;;;;3.49;100.00;100102.28;5006136;28;20201;-73
2021/12/30 00:28:10;;;;;;;18.53;9.20;;;;;;;3.51;100.00;100117.75;5000594;28;20236;-72
2021/12/30 00:30:36;;;;;;;15.80;8.67;;;;;;;3.48;100.00;100110.88;4998428;28;20198;-72
2021/12/30 00:33:03;;;;;;;15.90;9.37;;;;;;;3.53;100.00;100114.28;4998660;28;20220;-73
2021/12/30 00:35:29;;;;;;;18.10;9.13;;;;;;;3.50;100.00;100109.19;5005735;28;20227;-73
2021/12/30 00:37:56;;;;;;;17.00;8.87;;;;;;;3.52;100.00;100111.75;5000390;28;20292;-72
2021/12/30 00:40:23;;;;;;;17.37;9.57;;;;;;;3.51;100.00;100117.75;5006114;28;20566;-73
2021/12/30 00:42:50;;;;;;;15.53;8.83;;;;;;;3.53;100.00;100122.03;5001793;28;20207;-73
2021/12/30 00:45:17;;;;;;;16.00;9.53;;;;;;;3.48;100.00;100116.03;5005001;28;20550;-73
2021/12/30 00:47:44;;;;;;;15.23;9.27;;;;;;;3.47;100.00;100114.34;5000799;28;20204;-73
2021/12/30 00:50:11;;;;;;;16.13;8.80;;;;;;;3.48;100.00;100121.19;5003613;28;20237;-73
2021/12/30 00:52:38;;;;;;;15.93;9.57;;;;;;;3.48;100.00;100118.59;5005106;28;20231;-73
2021/12/30 00:55:06;;;;;;;18.03;9.27;;;;;;;3.49;100.00;100117.75;5008454;28;20705;-73
2021/12/30 00:57:33;;;;;;;16.03;9.50;;;;;;;3.49;100.00;100128.06;5007588;28;20209;-73
2021/12/30 00:59:59;;;;;;;14.27;8.77;;;;;;;3.48;100.00;100122.91;5004676;28;20208;-73
2021/12/30 01:02:27;;;;;;;15.27;8.80;;;;;;;3.47;100.00;100126.38;5001953;28;20748;-74
2021/12/30 01:04:53;;;;;;;14.30;9.43;;;;;;;3.47;100.00;100127.22;5003294;28;20937;-73
2021/12/30 01:07:21;;;;;;;18.43;9.63;;;;;;;3.46;100.00;100133.22;5001715;28;20216;-73
2021/12/30 01:09:47;;;;;;;17.13;9.00;;;;;;;3.46;100.00;100127.22;5000147;28;20196;-72
2021/12/30 01:12:14;;;;;;;16.97;9.53;;;;;;;3.44;100.00;100126.38;5002330;28;20218;-73
2021/12/30 01:14:45;;;;;;;17.13;9.47;;;;;;;3.45;100.00;100128.06;4998679;28;20866;-72
2021/12/30 01:17:18;;;;;;;16.27;9.40;;;;;;;3.45;100.00;100128.97;5004793;28;20279;-73
2021/12/30 01:19:46;;;;;;;16.47;9.77;;;;;;;3.45;100.00;100123.81;5000665;28;20832;-73
2021/12/30 01:22:14;;;;;;;15.93;9.60;;;;;;;3.48;100.00;100118.59;5001110;28;20220;-73
2021/12/30 01:24:41;;;;;;;16.67;9.37;;;;;;;3.50;100.00;100128.91;5000632;28;20204;-73
2021/12/30 01:27:08;;;;;;;18.73;9.77;;;;;;;3.51;100.00;100128.06;5005471;28;20212;-73
2021/12/30 01:29:35;;;;;;;17.80;9.27;;;;;;;3.50;100.00;100128.91;4996936;28;20212;-73
2021/12/30 01:32:01;;;;;;;17.50;9.80;;;;;;;3.50;100.00;100124.63;5003404;28;20220;-73
2021/12/30 01:34:28;;;;;;;18.13;9.20;;;;;;;3.50;100.00;100126.34;5002062;28;20220;-73
2021/12/30 01:36:56;;;;;;;14.17;8.67;;;;;;;3.49;100.00;100122.91;5002363;28;20209;-73
2021/12/30 01:39:22;;;;;;;17.27;9.17;;;;;;;3.49;100.00;100124.66;4998344;28;20212;-73
2021/12/30 01:41:50;;;;;;;16.47;9.33;;;;;;;3.47;100.00;100126.38;4999578;28;20216;-73
2021/12/30 01:44:17;;;;;;;15.27;9.17;;;;;;;3.44;100.00;100134.13;5003261;28;20769;-73
2021/12/30 01:46:46;;;;;;;17.10;9.50;;;;;;;3.45;100.00;100134.13;5003843;28;20198;-73
2021/12/30 01:49:13;;;;;;;17.80;9.37;;;;;;;3.45;100.00;100134.13;5000400;28;20215;-73
2021/12/30 01:51:41;;;;;;;14.90;7.97;;;;;;;3.43;100.00;100135.84;4996909;28;20232;-73
2021/12/30 01:54:10;;;;;;;16.23;8.60;;;;;;;3.43;100.00;100135.84;5001878;28;20220;-73
2021/12/30 01:56:37;;;;;;;15.90;8.83;;;;;;;3.41;100.00;100133.28;5002754;28;20207;-73
2021/12/30 01:59:04;;;;;;;14.50;8.30;;;;;;;3.41;100.00;100132.38;5001403;28;20208;-73
2021/12/30 02:01:31;;;;;;;17.13;8.57;;;;;;;3.41;100.00;100130.69;5004087;28;20227;-73
2021/12/30 02:03:58;;;;;;;16.87;9.23;;;;;;;3.39;100.00;100129.84;5000994;28;20211;-72
2021/12/30 02:06:24;;;;;;;14.63;8.57;;;;;;;3.39;100.00;100131.56;5005554;28;20196;-73
2021/12/30 02:08:52;;;;;;;14.07;8.33;;;;;;;3.37;100.00;100143.59;5002142;28;20660;-72
2021/12/30 02:11:20;;;;;;;13.67;8.07;;;;;;;3.34;100.00;100148.75;5002177;28;20252;-73
2021/12/30 02:13:49;;;;;;;15.47;8.60;;;;;;;3.33;100.00;100142.75;5001065;28;20224;-72
2021/12/30 02:16:17;;;;;;;11.93;7.43;;;;;;;3.30;100.00;100150.47;5000045;28;20206;-73
2021/12/30 02:18:43;;;;;;;15.40;9.13;;;;;;;3.31;100.00;100166.81;5002398;28;20208;-72
2021/12/30 02:21:11;;;;;;;17.63;8.93;;;;;;;3.29;100.00;100166.81;5004773;28;20231;-73
2021/12/30 02:23:39;;;;;;;15.27;8.47;;;;;;;3.28;100.00;100170.25;5003299;28;20961;-73
2021/12/30 02:26:09;;;;;;;15.63;8.23;;;;;;;3.29;100.00;100158.22;5000795;28;20201;-73
2021/12/30 02:28:38;;;;;;;15.27;8.70;;;;;;;3.29;100.00;100153.94;5003798;28;20196;-72
2021/12/30 02:31:07;;;;;;;15.37;8.30;;;;;;;3.30;100.00;100145.31;4998119;28;20241;-73
2021/12/30 02:33:33;;;;;;;19.17;9.07;;;;;;;3.30;100.00;100136.75;4996318;28;20220;-72
2021/12/30 02:36:00;;;;;;;14.80;8.27;;;;;;;3.28;100.00;100139.31;4998541;28;20260;-73
2021/12/30 02:38:28;;;;;;;14.63;8.37;;;;;;;3.27;100.00;100142.75;5003272;28;20212;-72
2021/12/30 02:40:57;;;;;;;17.03;8.40;;;;;;;3.25;100.00;100151.38;5000920;28;20220;-73
2021/12/30 02:43:26;;;;;;;16.67;8.73;;;;;;;3.23;100.00;100146.22;5003859;28;20200;-73
2021/12/30 02:45:52;;;;;;;15.40;7.77;;;;;;;3.23;100.00;100146.22;4999340;28;20200;-73
2021/12/30 02:48:20;;;;;;;15.77;8.63;;;;;;;3.20;100.00;100138.50;5003435;28;20200;-73
2021/12/30 02:50:49;;;;;;;15.40;8.27;;;;;;;3.18;100.00;100129.91;4999603;28;20234;-73
2021/12/30 02:53:16;;;;;;;15.57;8.03;;;;;;;3.17;100.00;100128.22;4997686;28;20218;-73
2021/12/30 02:55:45;;;;;;;13.73;7.97;;;;;;;3.16;100.00;100119.63;5004245;28;20215;-73
2021/12/30 02:58:12;;;;;;;15.47;7.97;;;;;;;3.16;100.00;100119.63;5005661;28;20199;-73
2021/12/30 03:00:40;;;;;;;15.57;8.33;;;;;;;3.19;100.00;100123.91;5004331;28;20827;-73
2021/12/30 03:03:07;;;;;;;14.17;8.30;;;;;;;3.20;100.00;100121.34;5006954;28;20201;-73
2021/12/30 03:05:34;;;;;;;19.47;8.57;;;;;;;3.23;100.00;100123.03;5005983;28;20211;-73
2021/12/30 03:08:01;;;;;;;14.37;8.37;;;;;;;3.29;100.00;100115.28;5000041;28;20200;-73
2021/12/30 03:10:29;;;;;;;15.00;8.47;;;;;;;3.34;100.00;100117.81;5003706;28;20671;-73
2021/12/30 03:13:03;;;;;;;16.20;8.33;;;;;;;3.39;100.00;100129.84;5007307;28;20193;-72
2021/12/30 03:15:32;;;;;;;15.50;8.40;;;;;;;3.45;100.00;100126.38;5006601;28;21521;-74
2021/12/30 03:17:58;;;;;;;15.17;8.37;;;;;;;3.49;100.00;100127.22;4999245;28;20196;-73
2021/12/30 03:20:25;;;;;;;13.70;7.83;;;;;;;3.54;100.00;100139.22;5005387;28;20214;-73
2021/12/30 03:22:51;;;;;;;16.90;8.07;;;;;;;3.59;100.00;100150.38;5003739;28;20681;-73
2021/12/30 03:25:18;;;;;;;15.43;7.80;;;;;;;3.62;100.00;100152.06;5005887;28;20200;-72
2021/12/30 03:27:45;;;;;;;15.77;8.27;;;;;;;3.67;100.00;100162.34;5002440;28;20209;-73
2021/12/30 03:30:16;;;;;;;17.43;8.90;;;;;;;3.69;100.00;100170.94;5004898;28;20205;-73
2021/12/30 03:32:43;;;;;;;14.17;8.50;;;;;;;3.69;100.00;100170.94;5004874;28;20250;-73
2021/12/30 03:35:10;;;;;;;15.43;8.60;;;;;;;3.71;100.00;100172.66;5003099;28;20225;-73
2021/12/30 03:37:37;;;;;;;14.53;7.97;;;;;;;3.72;100.00;100183.81;5004734;28;20201;-72
2021/12/30 03:40:07;;;;;;;13.70;7.57;;;;;;;3.73;100.00;100181.22;5006735;28;20212;-73
2021/12/30 03:42:33;;;;;;;16.20;7.50;;;;;;;3.77;100.00;100192.38;5005735;28;20220;-73
2021/12/30 03:45:02;;;;;;;14.57;7.70;;;;;;;3.81;100.00;100191.50;5006030;28;20223;-72
2021/12/30 03:47:30;;;;;;;15.57;7.67;;;;;;;3.82;100.00;100200.97;5003134;28;20201;-73
2021/12/30 03:49:56;;;;;;;15.63;8.50;;;;;;;3.84;100.00;100199.22;5002226;28;20208;-73
2021/12/30 03:52:30;;;;;;;14.70;7.70;;;;;;;3.87;100.00;100200.91;5002525;28;20727;-73
2021/12/30 03:54:57;;;;;;;13.40;7.43;;;;;;;3.93;100.00;100193.16;5001156;28;20229;-73
2021/12/30 03:57:24;;;;;;;15.33;8.23;;;;;;;4.01;100.00;100190.53;5001371;28;20211;-73
2021/12/30 03:59:50;;;;;;;14.70;7.53;;;;;;;4.04;100.00;100203.41;5003457;28;20210;-73
2021/12/30 04:02:17;;;;;;;11.50;7.33;;;;;;;4.06;100.00;100196.50;5004752;28;20228;-72
2021/12/30 04:04:45;;;;;;;13.40;7.30;;;;;;;4.12;100.00;100204.22;5006173;28;20203;-73
2021/12/30 04:07:11;;;;;;;17.03;7.60;;;;;;;4.15;100.00;100194.75;5002655;28;20212;-73
2021/12/30 04:09:38;;;;;;;14.23;7.70;;;;;;;4.20;100.00;100191.28;5000221;28;20201;-73
2021/12/30 04:12:05;;;;;;;14.87;8.03;;;;;;;4.29;100.00;100199.81;5003044;28;20232;-73
2021/12/30 04:14:31;;;;;;;15.90;6.70;;;;;;;4.33;100.00;100206.66;5003554;28;20213;-73
2021/12/30 04:16:58;;;;;;;11.93;6.50;;;;;;;4.39;100.00;100216.06;5000868;28;20212;-73
2021/12/30 04:19:24;;;;;;;10.27;6.37;;;;;;;4.50;100.00;100226.31;5007955;28;20703;-73
2021/12/30 04:21:54;;;;;;;12.43;6.07;;;;;;;4.55;100.00;100246.06;5000759;28;20630;-72
2021/12/30 04:24:21;;;;;;;12.47;6.13;;;;;;;4.62;100.00;100251.19;5003461;28;20216;-73
2021/12/30 04:26:50;;;;;;;11.27;5.73;;;;;;;4.63;100.00;100253.78;4997391;28;20220;-73
2021/12/30 04:29:16;;;;;;;11.17;6.20;;;;;;;4.72;100.00;100245.09;4999265;28;20661;-73
2021/12/30 04:31:43;;;;;;;15.80;7.07;;;;;;;4.76;100.00;100261.44;5001599;28;20240;-73
2021/12/30 04:34:09;;;;;;;13.07;7.23;;;;;;;4.81;100.00;100264.81;5002887;28;20216;-73
2021/12/30 04:36:35;;;;;;;10.77;7.27;;;;;;;4.87;100.00;100260.47;5003567;28;20211;-73
2021/12/30 04:39:04;;;;;;;12.03;6.67;;;;;;;4.91;100.00;100259.56;5001864;28;20637;-73
2021/12/30 04:41:30;;;;;;;11.77;7.27;;;;;;;5.07;100.00;100260.28;5001574;28;20232;-73
2021/12/30 04:43:57;;;;;;;15.40;7.60;;;;;;;5.16;100.00;100261.06;5003587;28;20192;-73
2021/12/30 04:46:23;;;;;;;14.00;7.43;;;;;;;5.15;100.00;100272.28;5003609;28;20285;-73
2021/12/30 04:48:50;;;;;;;12.50;7.40;;;;;;;5.14;100.00;100279.19;5000467;28;20682;-73
2021/12/30 04:51:17;;;;;;;14.83;8.50;;;;;;;5.20;100.00;100293.75;5005582;28;20282;-73
2021/12/30 04:53:43;;;;;;;14.43;7.97;;;;;;;5.25;100.00;100302.34;5001924;28;20218;-73
2021/12/30 04:56:12;;;;;;;16.37;8.53;;;;;;;5.25;100.00;100303.19;4998933;28;20647;-73
2021/12/30 04:58:38;;;;;;;20.37;8.60;;;;;;;5.32;100.00;100299.66;5000254;28;20213;-73
2021/12/30 05:01:05;;;;;;;16.10;8.67;;;;;;;5.32;100.00;100316.91;4996127;28;20216;-73
2021/12/30 05:03:31;;;;;;;18.43;9.37;;;;;;;5.31;100.00;100316.06;4999453;28;20848;-73
2021/12/30 05:05:58;;;;;;;21.57;9.57;;;;;;;5.37;100.00;100325.50;5004197;28;20203;-73
2021/12/30 05:08:26;;;;;;;19.80;10.27;;;;;;;5.42;100.00;100322.88;5000935;28;20204;-73
2021/12/30 05:10:53;;;;;;;23.83;10.83;;;;;;;5.39;100.00;100321.16;5001655;28;20304;-73
2021/12/30 05:13:21;;;;;;;26.00;10.43;;;;;;;5.41;100.00;100322.00;5001393;28;20216;-71
2021/12/30 05:15:48;;;;;;;26.30;10.40;;;;;;;5.45;100.00;100320.22;5006004;28;20224;-72
2021/12/30 05:18:15;;;;;;;31.87;11.97;;;;;;;5.50;100.00;100321.03;5001994;28;20200;-72
2021/12/30 05:20:43;;;;;;;35.23;12.77;;;;;;;5.56;100.00;100314.94;5000991;28;20296;-72
2021/12/30 05:23:10;;;;;;;30.07;12.03;;;;;;;5.56;100.00;100320.13;5000116;28;20212;-72
2021/12/30 05:25:37;;;;;;;33.40;12.40;;;;;;;5.55;100.00;100319.28;5004772;28;20279;-72
2021/12/30 05:28:03;;;;;;;29.90;12.73;;;;;;;5.58;100.00;100316.66;4994469;28;20216;-71
2021/12/30 05:30:31;;;;;;;28.90;11.70;;;;;;;5.63;100.00;100321.78;5000168;28;20694;-72
2021/12/30 05:32:58;;;;;;;29.83;12.23;;;;;;;5.62;100.00;100318.34;4997607;28;20205;-72
2021/12/30 05:35:25;;;;;;;31.40;12.53;;;;;;;5.66;100.00;100319.16;5000894;28;20212;-72
2021/12/30 05:37:51;;;;;;;33.63;13.67;;;;;;;5.66;100.00;100324.31;4997023;28;20208;-72
2021/12/30 05:40:20;;;;;;;33.37;12.47;;;;;;;5.63;100.00;100327.81;5003806;28;20207;-72
2021/12/30 05:42:47;;;;;;;36.37;13.83;;;;;;;5.72;100.00;100325.97;5000204;28;20238;-72
2021/12/30 05:45:15;;;;;;;34.83;13.23;;;;;;;5.74;100.00;100324.25;5001866;28;20208;-72
2021/12/30 05:47:46;;;;;;;38.00;13.53;;;;;;;5.80;100.00;100325.03;5002653;28;20240;-72
2021/12/30 05:50:15;;;;;;;34.60;12.83;;;;;;;5.76;100.00;100327.69;4999462;28;20221;-72
2021/12/30 05:52:42;;;;;;;30.30;12.93;;;;;;;5.76;100.00;100328.53;5002254;28;20279;-72
2021/12/30 05:55:09;;;;;;;34.93;12.27;;;;;;;5.81;100.00;100336.25;4999593;28;20212;-72
2021/12/30 05:57:36;;;;;;;31.27;13.07;;;;;;;5.77;100.00;100345.78;5005500;28;20200;-71
2021/12/30 06:00:04;;;;;;;35.03;13.53;;;;;;;5.81;100.00;100347.44;5000059;28;20807;-72
2021/12/30 06:02:30;;;;;;;38.63;13.17;;;;;;;5.78;100.00;100351.81;5001580;28;20220;-72
2021/12/30 06:04:58;;;;;;;35.20;12.17;;;;;;;5.81;100.00;100349.19;4997240;28;20212;-72
2021/12/30 06:07:24;;;;;;;32.53;12.23;;;;;;;5.83;100.00;100347.44;5001173;28;20721;-72
2021/12/30 06:09:50;;;;;;;32.30;12.37;;;;;;;5.91;100.00;100342.16;5000086;28;20204;-72
2021/12/30 06:12:17;;;;;;;36.73;12.83;;;;;;;5.94;100.00;100355.06;4995290;28;20220;-72
2021/12/30 06:14:43;;;;;;;31.17;13.23;;;;;;;5.94;100.00;100352.50;4998218;28;20290;-72
2021/12/30 06:17:11;;;;;;;30.10;13.50;;;;;;;5.94;100.00;100362.84;5002375;28;20197;-72
2021/12/30 06:19:38;;;;;;;39.07;12.87;;;;;;;5.88;100.00;100363.78;4997543;28;20578;-72
2021/12/30 06:22:06;;;;;;;33.97;13.43;;;;;;;5.87;100.00;100355.16;5003829;28;20613;-72
2021/12/30 06:24:33;;;;;;;31.17;12.97;;;;;;;5.85;100.00;100354.28;4998111;28;20200;-72
2021/12/30 06:26:59;;;;;;;37.67;12.43;;;;;;;5.85;100.00;100343.09;5003375;28;20204;-72
2021/12/30 06:29:26;;;;;;;29.93;11.97;;;;;;;5.83;100.00;100355.19;5000071;28;20205;-72
2021/12/30 06:31:52;;;;;;;29.87;11.73;;;;;;;5.78;100.00;100368.16;5001353;28;20212;-72
2021/12/30 06:34:18;;;;;;;25.90;11.10;;;;;;;5.69;100.00;100363.09;5000540;28;20783;-72
2021/12/30 06:36:45;;;;;;;30.33;12.13;;;;;;;5.62;100.00;100367.47;5005748;28;20674;-72
2021/12/30 06:39:13;;;;;;;26.17;11.47;;;;;;;5.56;100.00;100375.31;5001344;28;20205;-72
2021/12/30 06:41:40;;;;;;;33.03;10.37;;;;;;;5.48;100.00;100380.53;4995716;28;20232;-72
2021/12/30 06:44:06;;;;;;;20.47;9.67;;;;;;;5.37;100.00;100379.78;5000883;28;20279;-72
2021/12/30 06:46:33;;;;;;;23.70;9.17;;;;;;;5.28;100.00;100383.31;4996837;28;20220;-72
2021/12/30 06:48:59;;;;;;;22.93;9.80;;;;;;;5.26;100.00;100391.97;5001990;28;20229;-72
2021/12/30 06:51:27;;;;;;;26.03;9.03;;;;;;;5.25;100.00;100379.88;4997658;28;20217;-72
2021/12/30 06:53:55;;;;;;;25.77;9.63;;;;;;;5.20;100.00;100399.75;5002204;28;20208;-72
2021/12/30 06:56:24;;;;;;;20.13;9.17;;;;;;;5.18;100.00;100401.50;4998068;28;20738;-72
2021/12/30 06:58:51;;;;;;;23.27;8.87;;;;;;;5.21;100.00;100406.63;5001605;28;20208;-72
2021/12/30 07:01:17;;;;;;;24.90;9.13;;;;;;;5.20;100.00;100410.09;5000693;28;20303;-71
2021/12/30 07:03:44;;;;;;;21.47;8.70;;;;;;;5.23;100.00;100407.47;5004046;28;20203;-72
2021/12/30 07:06:10;;;;;;;26.80;8.23;;;;;;;5.16;100.00;100413.56;4999737;28;20662;-72
2021/12/30 07:08:36;;;;;;;24.83;8.87;;;;;;;5.26;100.00;100417.81;5000394;28;20217;-72
2021/12/30 07:11:03;;;;;;;21.40;8.50;;;;;;;5.28;100.00;100422.09;4996659;28;20236;-72
2021/12/30 07:13:31;;;;;;;20.97;8.60;;;;;;;5.29;100.00;100433.28;5004081;28;20254;-71
2021/12/30 07:15:57;;;;;;;26.80;8.97;;;;;;;5.26;100.00;100433.31;4998845;28;20696;-71
2021/12/30 07:18:24;;;;;;;24.37;8.80;;;;;;;5.21;100.00;100432.50;5003107;28;20200;-72
2021/12/30 07:20:50;;;;;;;26.33;8.77;;;;;;;5.17;100.00;100443.69;4995036;28;20232;-72
2021/12/30 07:23:16;;;;;;;24.37;7.80;;;;;;;5.12;100.00;100443.75;5001158;28;20211;-72
2021/12/30 07:25:43;;;;;;;24.57;8.53;;;;;;;5.16;100.00;100447.16;4997350;28;20205;-71
2021/12/30 07:28:09;;;;;;;25.43;8.07;;;;;;;5.17;100.00;100448.88;4999740;28;20203;-72
2021/12/30 07:30:37;;;;;;;25.60;8.50;;;;;;;5.20;100.00;100447.13;4997506;28;20874;-72
2021/12/30 07:33:06;;;;;;;24.23;8.53;;;;;;;5.22;100.00;100454.88;4996902;28;20208;-72
2021/12/30 07:35:33;;;;;;;23.07;8.53;;;;;;;5.26;100.00;100454.84;4999972;28;20360;-72
2021/12/30 07:38:00;;;;;;;30.53;9.47;;;;;;;5.25;100.00;100444.50;5002992;28;20200;-72
2021/12/30 07:40:27;;;;;;;21.10;8.53;;;;;;;5.28;100.00;100445.34;4996414;28;20587;-71
2021/12/30 07:42:53;;;;;;;23.37;8.97;;;;;;;5.31;100.00;100449.63;5003715;28;20202;-72
2021/12/30 07:45:20;;;;;;;23.80;9.03;;;;;;;5.28;100.00;100460.84;5005887;28;20213;-72
2021/12/30 07:47:49;;;;;;;27.20;9.30;;;;;;;5.22;100.00;100466.06;5002043;28;20192;-72
2021/12/30 07:50:15;;;;;;;30.13;8.97;;;;;;;5.24;100.00;100471.22;5003374;28;20215;-71
2021/12/30 07:52:42;;;;;;;23.30;8.10;;;;;;;5.26;100.00;100469.50;5004768;28;20224;-71
2021/12/30 07:55:10;;;;;;;23.97;9.10;;;;;;;5.26;100.00;100466.94;5004312;28;20217;-71
2021/12/30 07:57:38;;;;;;;26.43;10.00;;;;;;;5.28;100.00;100473.78;5000430;28;20205;-71
2021/12/30 08:00:06;;;;;;;26.93;9.37;;;;;;;5.33;100.00;100471.19;5004513;28;20201;-71
2021/12/30 08:02:40;;;;;;;26.63;10.43;;;;;;;5.36;100.00;100476.31;5003845;28;20239;-71
2021/12/30 08:05:09;;;;;;;29.07;10.70;;;;;;;5.38;100.00;100472.00;5006355;28;20209;-74
2021/12/30 08:07:35;;;;;;;22.07;9.10;;;;;;;5.39;100.00;100476.28;5001713;28;20205;-74
2021/12/30 08:10:02;;;;;;;32.33;10.47;;;;;;;5.45;100.00;100478.84;5006407;28;20299;-74
2021/12/30 08:12:28;;;;;;;27.30;11.03;;;;;;;5.48;100.00;100483.13;5001023;28;20229;-71
2021/12/30 08:14:55;;;;;;;32.80;11.37;;;;;;;5.56;100.00;100493.41;5012031;28;20219;-73
2021/12/30 08:17:21;;;;;;;34.23;10.33;;;;;;;5.62;100.00;100495.97;5003029;28;21555;-71
2021/12/30 08:19:48;;;;;;;31.73;11.30;;;;;;;5.63;100.00;100498.53;5007325;28;20563;-74
2021/12/30 08:22:15;;;;;;;32.77;13.57;;;;;;;5.68;100.00;100495.88;4998789;28;20687;-74
2021/12/30 08:24:42;;;;;;;36.40;13.70;;;;;;;5.69;100.00;100495.88;5009705;28;20211;-71
2021/12/30 08:27:10;;;;;;;30.97;13.07;;;;;;;5.73;100.00;100501.88;5000072;28;20198;-72
2021/12/30 08:29:36;;;;;;;39.57;13.33;;;;;;;5.76;100.00;100507.03;5001565;28;20205;-72
2021/12/30 08:32:06;;;;;;;41.43;14.37;;;;;;;5.78;100.00;100500.13;5002421;28;20233;-72
2021/12/30 08:34:32;;;;;;;40.53;13.53;;;;;;;5.81;100.00;100509.59;5001448;28;20205;-72
2021/12/30 08:36:58;;;;;;;36.90;13.03;;;;;;;5.84;100.00;100505.25;5004581;28;20220;-72
2021/12/30 08:39:26;;;;;;;45.23;13.93;;;;;;;5.87;100.00;100512.13;5004985;28;20209;-72
2021/12/30 08:41:52;;;;;;;38.93;13.90;;;;;;;5.91;100.00;100513.84;5004785;28;20224;-72
2021/12/30 08:44:19;;;;;;;35.00;11.53;;;;;;;5.95;100.00;100514.66;5005283;28;20207;-72
2021/12/30 08:46:45;;;;;;;41.33;11.77;;;;;;;6.00;100.00;100518.09;5004786;28;20215;-71
2021/12/30 08:49:11;;;;;;;37.17;11.63;;;;;;;6.06;100.00;100508.53;5004711;28;20205;-72
2021/12/30 08:51:39;;;;;;;32.07;11.33;;;;;;;6.15;100.00;100498.97;5010165;28;20224;-72
2021/12/30 08:54:06;;;;;;;35.53;11.30;;;;;;;6.24;100.00;100501.47;5000904;28;20204;-72
2021/12/30 08:56:34;;;;;;;34.47;10.80;;;;;;;6.31;100.00;100497.09;5002351;28;20333;-71
2021/12/30 08:59:00;;;;;;;41.83;11.77;;;;;;;6.39;100.00;100497.88;5001027;28;20196;-72
2021/12/30 09:01:27;;;;;;;35.17;12.07;;;;;;;6.44;100.00;100499.53;5000856;28;20221;-72
2021/12/30 09:03:54;;;;;;;36.13;10.60;;;;;;;6.46;100.00;100501.25;5001365;28;20217;-72
2021/12/30 09:06:20;;;;;;;37.30;10.70;;;;;;;6.49;100.00;100503.78;5004972;28;20797;-72
2021/12/30 09:08:47;;;;;;;32.77;11.33;;;;;;;6.51;100.00;100496.84;5001145;28;20235;-72
2021/12/30 09:11:13;;;;;;;33.10;10.70;;;;;;;6.57;100.00;100500.22;4998348;28;20221;-72
2021/12/30 09:13:41;;;;;;;35.57;10.20;;;;;;;6.60;100.00;100495.03;5001293;28;20219;-72
2021/12/30 09:16:08;;;;;;;43.20;10.83;;;;;;;6.62;100.00;100502.78;4999957;28;20575;-72
2021/12/30 09:18:34;;;;;;;33.37;10.80;;;;;;;6.63;100.00;100505.34;4999352;28;20211;-71
2021/12/30 09:21:00;;;;;;;28.47;9.90;;;;;;;6.67;100.00;100508.78;5005655;28;21110;-72
2021/12/30 09:23:27;;;;;;;29.03;9.30;;;;;;;6.71;100.00;100512.19;4999581;28;20214;-72
2021/12/30 09:25:56;;;;;;;31.67;9.93;;;;;;;6.76;100.00;100520.75;5004590;28;20205;-72
2021/12/30 09:28:24;;;;;;;28.80;10.87;;;;;;;6.75;100.00;100521.63;5000670;28;20210;-72
2021/12/30 09:30:52;;;;;;;31.53;10.73;;;;;;;6.81;100.00;100517.22;5007027;28;20233;-72
2021/12/30 09:33:18;;;;;;;30.77;10.80;;;;;;;6.83;100.00;100523.25;4999187;28;20213;-72
2021/12/30 09:35:48;;;;;;;27.97;10.37;;;;;;;6.90;100.00;100515.41;5003360;28;20221;-72
2021/12/30 09:38:15;;;;;;;33.40;10.83;;;;;;;6.92;100.00;100511.06;5001481;28;20237;-72
2021/12/30 09:40:42;;;;;;;27.43;10.97;;;;;;;6.94;100.00;100506.69;5001880;28;20302;-72
2021/12/30 09:43:09;;;;;;;27.63;11.00;;;;;;;6.93;100.00;100511.03;5000876;28;20209;-72
2021/12/30 09:45:39;;;;;;;29.90;10.43;;;;;;;6.98;100.00;100521.34;5001799;28;20205;-72
2021/12/30 09:48:11;;;;;;;24.87;9.93;;;;;;;7.02;100.00;100512.66;4998120;28;20221;-71
2021/12/30 09:50:42;;;;;;;28.03;10.17;;;;;;;7.07;100.00;100509.97;5010636;28;20580;-72
2021/12/30 09:53:10;;;;;;;35.43;11.37;;;;;;;7.09;100.00;100508.22;5002372;28;20203;-71
2021/12/30 09:55:37;;;;;;;34.63;10.23;;;;;;;7.13;100.00;100515.94;5007810;28;20232;-72
2021/12/30 09:58:03;;;;;;;27.87;10.27;;;;;;;7.19;100.00;100508.09;4995437;28;20217;-72
2021/12/30 10:00:30;;;;;;;25.63;9.30;;;;;;;7.26;100.00;100513.19;5001520;28;20206;-72
2021/12/30 10:02:56;;;;;;;28.73;9.53;;;;;;;7.30;100.00;100518.31;5003222;28;20207;-72
2021/12/30 10:05:28;;;;;;;23.97;9.53;;;;;;;7.35;100.00;100519.13;5000803;28;20216;-72
2021/12/30 10:08:09;;;;;;;23.30;9.00;;;;;;;7.45;100.00;100519.81;5001880;28;20629;-72
2021/12/30 10:10:39;;;;;;;32.30;10.07;;;;;;;7.51;100.00;100522.34;4996705;28;20203;-72
2021/12/30 10:13:19;;;;;;;26.40;10.33;;;;;;;7.59;100.00;100522.22;5003518;28;20212;-72
2021/12/30 10:15:48;;;;;;;28.27;9.80;;;;;;;7.57;100.00;100514.44;4999959;28;20744;-72
2021/12/30 10:18:14;;;;;;;27.10;10.10;;;;;;;7.58;100.00;100507.50;4998277;28;20203;-72
2021/12/30 10:20:42;;;;;;;26.03;10.77;;;;;;;7.65;100.00;100521.25;5002327;28;20218;-71
2021/12/30 10:23:12;;;;;;;26.97;9.43;;;;;;;7.66;100.00;100521.22;5001768;28;20599;-72
2021/12/30 10:25:40;;;;;;;26.03;9.20;;;;;;;7.71;100.00;100519.41;4997699;28;20199;-72
2021/12/30 10:28:22;;;;;;;27.33;8.93;;;;;;;7.72;100.00;100523.75;5001681;28;20211;-72
2021/12/30 10:30:51;;;;;;;28.27;9.10;;;;;;;7.76;100.00;100516.75;5012861;28;20239;-72
2021/12/30 10:33:19;;;;;;;29.27;9.60;;;;;;;7.78;100.00;100525.38;5002671;28;20208;-71
2021/12/30 10:35:47;;;;;;;24.03;9.10;;;;;;;7.79;100.00;100527.06;4999938;28;20215;-72
2021/12/30 10:38:14;;;;;;;29.00;8.83;;;;;;;7.82;100.00;100508.00;5003011;28;20230;-72
2021/12/30 10:40:43;;;;;;;23.10;8.67;;;;;;;7.86;100.00;100522.63;4998954;28;20227;-72
2021/12/30 10:43:18;;;;;;;23.50;8.63;;;;;;;7.95;100.00;100528.56;5003436;28;20283;-72
2021/12/30 10:45:44;;;;;;;23.43;8.27;;;;;;;8.02;100.00;100529.31;5000557;28;20199;-71
2021/12/30 10:48:11;;;;;;;29.13;8.57;;;;;;;8.08;100.00;100529.19;5005035;28;20211;-72
2021/12/30 10:50:37;;;;;;;20.27;8.27;;;;;;;8.06;100.00;100527.50;4998456;28;20212;-72
2021/12/30 10:53:05;;;;;;;26.33;7.63;;;;;;;8.02;100.00;100520.63;5002793;28;20204;-72
2021/12/30 10:55:34;;;;;;;25.33;8.17;;;;;;;8.09;100.00;100510.13;4996996;28;20842;-72
2021/12/30 10:58:00;;;;;;;25.97;8.60;;;;;;;8.10;100.00;100511.84;5003943;28;20289;-72
2021/12/30 11:00:29;;;;;;;19.73;8.50;;;;;;;8.09;100.00;100499.75;4996482;28;20216;-72
2021/12/30 11:02:56;;;;;;;16.23;7.70;;;;;;;8.13;100.00;100493.59;5004108;28;20212;-71
2021/12/30 11:05:23;;;;;;;21.47;7.60;;;;;;;8.10;100.00;100493.66;5001247;28;20947;-72
2021/12/30 11:07:51;;;;;;;17.10;6.90;;;;;;;8.15;100.00;100497.03;4997304;28;20685;-72
2021/12/30 11:10:30;;;;;;;22.43;6.87;;;;;;;8.18;100.00;100500.44;4997403;28;20203;-72
2021/12/30 11:13:10;;;;;;;21.93;7.77;;;;;;;8.18;100.00;100497.84;5002940;28;20200;-71
2021/12/30 11:15:36;;;;;;;21.17;7.17;;;;;;;8.20;100.00;100507.34;4999898;28;20268;-72